Time,TemperatureF,DewpointF,PressureIn,WindDirection,WindDirectionDegrees,WindSpeedMPH,WindSpeedGustMPH,Humidity,HourlyPrecipIn,Conditions,Clouds,dailyrainin,SoftwareType,DateUTC
2013-03-13 00:12:00,42.0,23.0,-100.00,ESE,117,4.0,5.0,47,0.00,,,0.00,,2013-03-13 07:12:00,
2013-03-13 00:22:00,42.0,23.0,-100.00,ESE,117,4.0,5.0,47,0.00,,,0.00,,2013-03-13 07:22:00,
2013-03-13 00:32:00,42.0,23.0,-100.00,ESE,117,4.0,5.0,47,0.00,,,0.00,,2013-03-13 07:32:00,
2013-03-13 00:42:00,42.0,23.0,-100.00,ESE,117,4.0,5.0,47,0.00,,,0.00,,2013-03-13 07:42:00,
2013-03-13 00:52:00,42.0,23.0,-100.00,ESE,117,4.0,5.0,47,0.00,,,0.00,,2013-03-13 07:52:00,
2013-03-13 01:22:00,41.0,23.0,-100.00,SE,125,4.0,5.0,48,0.00,,,0.00,,2013-03-13 08:22:00,
2013-03-13 01:32:00,41.0,23.0,-100.00,SE,125,4.0,5.0,48,0.00,,,0.00,,2013-03-13 08:32:00,
2013-03-13 01:42:00,41.0,23.0,-100.00,SE,125,4.0,5.0,48,0.00,,,0.00,,2013-03-13 08:42:00,
2013-03-13 01:52:00,41.0,23.0,-100.00,SE,125,4.0,5.0,48,0.00,,,0.00,,2013-03-13 08:52:00,
2013-03-13 02:12:00,48.0,19.0,-100.00,ESE,113,5.0,6.0,31,0.00,,,0.00,,2013-03-13 09:12:00,
2013-03-13 02:22:00,48.0,19.0,-100.00,ESE,113,5.0,6.0,31,0.00,,,0.00,,2013-03-13 09:22:00,
2013-03-13 02:32:00,48.0,19.0,-100.00,ESE,113,5.0,6.0,31,0.00,,,0.00,,2013-03-13 09:32:00,
2013-03-13 02:42:00,48.0,19.0,-100.00,ESE,113,5.0,6.0,31,0.00,,,0.00,,2013-03-13 09:42:00,
2013-03-13 02:52:00,48.0,19.0,-100.00,ESE,113,5.0,6.0,31,0.00,,,0.00,,2013-03-13 09:52:00,
2013-03-13 03:11:00,43.0,22.0,-100.00,ESE,117,3.0,5.0,43,0.00,,,0.00,,2013-03-13 10:11:00,
2013-03-13 03:22:00,43.0,22.0,-100.00,ESE,117,3.0,5.0,43,0.00,,,0.00,,2013-03-13 10:22:00,
2013-03-13 03:32:00,43.0,22.0,-100.00,ESE,117,3.0,5.0,43,0.00,,,0.00,,2013-03-13 10:32:00,
2013-03-13 03:42:00,43.0,22.0,-100.00,ESE,117,3.0,5.0,43,0.00,,,0.00,,2013-03-13 10:42:00,
2013-03-13 03:52:00,43.0,22.0,-100.00,ESE,117,3.0,5.0,43,0.00,,,0.00,,2013-03-13 10:52:00,
2013-03-13 04:12:00,42.0,22.0,-100.00,SE,126,3.0,4.0,45,0.00,,,0.00,,2013-03-13 11:12:00,
2013-03-13 04:22:00,42.0,22.0,-100.00,SE,126,3.0,4.0,45,0.00,,,0.00,,2013-03-13 11:22:00,
2013-03-13 04:32:00,42.0,22.0,-100.00,SE,126,3.0,4.0,45,0.00,,,0.00,,2013-03-13 11:32:00,
2013-03-13 04:42:00,42.0,22.0,-100.00,SE,126,3.0,4.0,45,0.00,,,0.00,,2013-03-13 11:42:00,
2013-03-13 04:52:00,42.0,22.0,-100.00,SE,126,3.0,4.0,45,0.00,,,0.00,,2013-03-13 11:52:00,
2013-03-13 05:12:00,45.0,24.0,-100.00,ESE,114,5.0,6.0,43,0.00,,,0.00,,2013-03-13 12:12:00,
2013-03-13 05:22:00,45.0,24.0,-100.00,ESE,114,5.0,6.0,43,0.00,,,0.00,,2013-03-13 12:22:00,
2013-03-13 05:32:00,45.0,24.0,-100.00,ESE,114,5.0,6.0,43,0.00,,,0.00,,2013-03-13 12:32:00,
2013-03-13 05:42:00,45.0,24.0,-100.00,ESE,114,5.0,6.0,43,0.00,,,0.00,,2013-03-13 12:42:00,
2013-03-13 05:52:00,45.0,24.0,-100.00,ESE,114,5.0,6.0,43,0.00,,,0.00,,2013-03-13 12:52:00,
2013-03-13 06:22:00,54.0,13.0,-100.00,East,99,6.0,12.0,19,0.00,,,-99.99,,2013-03-13 13:22:00,
2013-03-13 07:12:00,55.0,11.0,-100.00,East,94,7.0,11.0,17,0.00,,,0.00,,2013-03-13 14:12:00,
2013-03-13 07:21:00,55.0,11.0,-100.00,East,94,7.0,11.0,17,0.00,,,0.00,,2013-03-13 14:21:00,
2013-03-13 08:12:00,55.0,12.0,-100.00,East,99,6.0,11.0,18,-99.99,,,0.00,,2013-03-13 15:12:00,
2013-03-13 09:22:00,59.0,16.0,-100.00,ESE,109,6.0,11.0,18,-99.99,,,0.00,,2013-03-13 16:22:00,
2013-03-13 10:12:00,64.0,15.0,-100.00,ESE,105,7.0,15.0,15,0.00,,,0.00,,2013-03-13 17:12:00,
2013-03-13 10:22:00,64.0,15.0,-100.00,ESE,105,7.0,15.0,15,0.00,,,0.00,,2013-03-13 17:22:00,
2013-03-13 11:22:00,67.0,18.0,-100.00,ESE,121,5.0,13.0,15,0.00,,,-99.99,,2013-03-13 18:22:00,
2013-03-13 12:22:00,68.0,15.0,-100.00,ESE,113,7.0,14.0,13,-99.99,,,0.00,,2013-03-13 19:22:00,
2013-03-13 13:22:00,70.0,15.0,-100.00,ESE,115,7.0,14.0,12,-99.99,,,0.00,,2013-03-13 20:22:00,
2013-03-13 14:12:00,72.0,17.0,-100.00,East,99,7.0,15.0,12,-99.99,,,0.00,,2013-03-13 21:12:00,
2013-03-13 14:22:00,72.0,17.0,-100.00,East,99,7.0,15.0,12,-99.99,,,0.00,,2013-03-13 21:22:00,
2013-03-13 15:22:00,73.0,17.0,-100.00,ESE,110,6.0,13.0,12,-99.99,,,0.00,,2013-03-13 22:22:00,
2013-03-13 16:12:00,74.0,18.0,-100.00,SSE,157,5.0,13.0,12,0.00,,,0.00,,2013-03-13 23:12:00,
2013-03-13 16:22:00,74.0,18.0,-100.00,SSE,157,5.0,13.0,12,0.00,,,0.00,,2013-03-13 23:22:00,
2013-03-13 17:22:00,72.0,17.0,-100.00,WNW,286,4.0,11.0,12,-99.99,,,0.00,,2013-03-14 00:22:00,
2013-03-13 17:32:00,72.0,17.0,-100.00,WNW,286,4.0,11.0,12,-99.99,,,0.00,,2013-03-14 00:32:00,
2013-03-13 17:42:00,72.0,17.0,-100.00,WNW,286,4.0,11.0,12,-99.99,,,0.00,,2013-03-14 00:42:00,
2013-03-13 17:52:00,72.0,17.0,-100.00,WNW,286,4.0,11.0,12,-99.99,,,0.00,,2013-03-14 00:52:00,
2013-03-13 18:22:00,65.0,27.0,-100.00,South,177,3.0,7.0,24,-99.99,,,0.00,,2013-03-14 01:22:00,
2013-03-13 18:32:00,65.0,27.0,-100.00,South,177,3.0,7.0,24,-99.99,,,0.00,,2013-03-14 01:32:00,
2013-03-13 18:42:00,65.0,27.0,-100.00,South,177,3.0,7.0,24,-99.99,,,0.00,,2013-03-14 01:42:00,
2013-03-13 18:52:00,65.0,27.0,-100.00,South,177,3.0,7.0,24,-99.99,,,0.00,,2013-03-14 01:52:00,
2013-03-13 19:22:00,55.0,27.0,-100.00,SE,143,3.0,6.0,34,0.00,,,0.00,,2013-03-14 02:22:00,
2013-03-13 19:42:00,55.0,27.0,-100.00,SE,143,3.0,6.0,34,0.00,,,0.00,,2013-03-14 02:42:00,
2013-03-13 19:51:00,55.0,27.0,-100.00,SE,143,3.0,6.0,34,0.00,,,0.00,,2013-03-14 02:51:00,
2013-03-13 20:12:00,49.0,22.0,-100.00,SE,126,3.0,6.0,34,0.00,,,0.00,,2013-03-14 03:12:00,
2013-03-13 20:22:00,49.0,22.0,-100.00,SE,126,3.0,6.0,34,0.00,,,0.00,,2013-03-14 03:22:00,
2013-03-13 20:32:00,49.0,22.0,-100.00,SE,126,3.0,6.0,34,0.00,,,0.00,,2013-03-14 03:32:00,
2013-03-13 20:42:00,49.0,22.0,-100.00,SE,126,3.0,6.0,34,0.00,,,0.00,,2013-03-14 03:42:00,
2013-03-13 20:52:00,49.0,22.0,-100.00,SE,126,3.0,6.0,34,0.00,,,0.00,,2013-03-14 03:52:00,
2013-03-13 21:22:00,48.0,22.0,-100.00,ESE,123,4.0,6.0,36,0.00,,,0.00,,2013-03-14 04:22:00,
2013-03-13 21:32:00,48.0,22.0,-100.00,ESE,123,4.0,6.0,36,0.00,,,0.00,,2013-03-14 04:32:00,
2013-03-13 21:42:00,48.0,22.0,-100.00,ESE,123,4.0,6.0,36,0.00,,,0.00,,2013-03-14 04:42:00,
2013-03-13 21:52:00,48.0,22.0,-100.00,ESE,123,4.0,6.0,36,0.00,,,0.00,,2013-03-14 04:52:00,
2013-03-13 22:22:00,47.0,20.0,-100.00,SE,135,2.0,5.0,34,-99.99,,,0.00,,2013-03-14 05:22:00,
2013-03-13 22:33:00,47.0,20.0,-100.00,SE,135,2.0,5.0,34,-99.99,,,0.00,,2013-03-14 05:33:00,
2013-03-13 22:42:00,47.0,20.0,-100.00,SE,135,2.0,5.0,34,-99.99,,,0.00,,2013-03-14 05:42:00,
2013-03-13 22:52:00,47.0,20.0,-100.00,SE,135,2.0,5.0,34,-99.99,,,0.00,,2013-03-14 05:52:00,
2013-03-13 23:12:00,49.0,19.0,-100.00,ESE,110,3.0,6.0,30,0.00,,,0.00,,2013-03-14 06:12:00,
2013-03-13 23:22:00,49.0,19.0,-100.00,ESE,110,3.0,6.0,30,0.00,,,0.00,,2013-03-14 06:22:00,
2013-03-13 23:32:00,49.0,19.0,-100.00,ESE,110,3.0,6.0,30,0.00,,,0.00,,2013-03-14 06:32:00,
2013-03-13 23:42:00,49.0,19.0,-100.00,ESE,110,3.0,6.0,30,0.00,,,0.00,,2013-03-14 06:42:00,
2013-03-13 23:52:00,49.0,19.0,-100.00,ESE,110,3.0,6.0,30,0.00,,,0.00,,2013-03-14 06:52:00,